sensor_id;sensor_type;location;lat;lon;timestamp;P1;durP1;ratioP1;P2;durP2;ratioP2
76176;SDS011;64938;47.696;8.066;2024-03-29T16:19:22;0.30;;;0.30;;
76176;SDS011;64938;47.696;8.066;2024-03-29T16:33:23;0.90;;;0.70;;
76176;SDS011;64938;47.696;8.066;2024-03-29T16:35:48;2.20;;;1.00;;
76176;SDS011;64938;47.696;8.066;2024-03-29T16:38:14;1.10;;;1.00;;
76176;SDS011;64938;47.696;8.066;2024-03-29T16:40:40;1.58;;;1.10;;
76176;SDS011;64938;47.696;8.066;2024-03-29T16:43:06;2.17;;;1.52;;
76176;SDS011;64938;47.696;8.066;2024-03-29T16:45:33;2.20;;;1.70;;
76176;SDS011;64938;47.696;8.066;2024-03-29T16:47:59;1.80;;;1.30;;
76176;SDS011;64938;47.696;8.066;2024-03-29T16:50:25;2.70;;;2.23;;
76176;SDS011;64938;47.696;8.066;2024-03-29T16:52:51;3.70;;;3.17;;
76176;SDS011;64938;47.696;8.066;2024-03-29T16:55:16;5.57;;;4.13;;
76176;SDS011;64938;47.696;8.066;2024-03-29T16:57:43;31.77;;;20.60;;
76176;SDS011;64938;47.696;8.066;2024-03-29T17:00:09;36.00;;;24.13;;
76176;SDS011;64938;47.696;8.066;2024-03-29T17:02:36;44.08;;;27.45;;
76176;SDS011;64938;47.696;8.066;2024-03-29T17:05:03;37.78;;;24.00;;
76176;SDS011;64938;47.696;8.066;2024-03-29T17:07:30;42.38;;;26.13;;
76176;SDS011;64938;47.696;8.066;2024-03-29T17:09:56;33.00;;;20.20;;
76176;SDS011;64938;47.696;8.066;2024-03-29T17:12:22;25.92;;;16.90;;
76176;SDS011;64938;47.696;8.066;2024-03-29T17:14:50;23.23;;;14.95;;
76176;SDS011;64938;47.696;8.066;2024-03-29T17:17:16;11.40;;;7.30;;
76176;SDS011;64938;47.696;8.066;2024-03-29T17:19:41;6.00;;;4.18;;
76176;SDS011;64938;47.696;8.066;2024-03-29T17:22:07;8.02;;;5.82;;
76176;SDS011;64938;47.696;8.066;2024-03-29T17:24:33;3.95;;;2.78;;
76176;SDS011;64938;47.696;8.066;2024-03-29T17:26:59;2.85;;;2.05;;
76176;SDS011;64938;47.696;8.066;2024-03-29T17:29:26;2.70;;;1.90;;
76176;SDS011;64938;47.696;8.066;2024-03-29T17:31:52;2.37;;;1.40;;
76176;SDS011;64938;47.696;8.066;2024-03-29T17:34:18;2.88;;;1.60;;
76176;SDS011;64938;47.696;8.066;2024-03-29T17:36:45;1.60;;;1.40;;
76176;SDS011;64938;47.696;8.066;2024-03-29T17:39:12;1.70;;;1.27;;
76176;SDS011;64938;47.696;8.066;2024-03-29T17:41:39;1.70;;;1.10;;
76176;SDS011;64938;47.696;8.066;2024-03-29T17:44:06;2.30;;;1.50;;
76176;SDS011;64938;47.696;8.066;2024-03-29T17:46:33;1.48;;;1.20;;
76176;SDS011;64938;47.696;8.066;2024-03-29T17:49:01;1.65;;;1.20;;
76176;SDS011;64938;47.696;8.066;2024-03-29T17:51:28;2.28;;;1.90;;
76176;SDS011;64938;47.696;8.066;2024-03-29T17:53:53;3.45;;;2.70;;
76176;SDS011;64938;47.696;8.066;2024-03-29T17:56:19;4.50;;;2.90;;
76176;SDS011;64938;47.696;8.066;2024-03-29T17:58:45;4.20;;;3.80;;
76176;SDS011;64938;47.696;8.066;2024-03-29T18:01:12;2.40;;;2.20;;
76176;SDS011;64938;47.696;8.066;2024-03-29T18:03:40;2.40;;;2.03;;
76176;SDS011;64938;47.696;8.066;2024-03-29T18:06:06;3.30;;;3.00;;
76176;SDS011;64938;47.696;8.066;2024-03-29T18:08:32;3.63;;;2.95;;
76176;SDS011;64938;47.696;8.066;2024-03-29T18:10:58;2.10;;;1.90;;
76176;SDS011;64938;47.696;8.066;2024-03-29T18:13:24;2.30;;;1.58;;
76176;SDS011;64938;47.696;8.066;2024-03-29T18:15:50;3.75;;;2.47;;
76176;SDS011;64938;47.696;8.066;2024-03-29T18:18:16;4.85;;;4.07;;
76176;SDS011;64938;47.696;8.066;2024-03-29T18:20:42;3.03;;;2.38;;
76176;SDS011;64938;47.696;8.066;2024-03-29T18:23:10;2.50;;;2.10;;
76176;SDS011;64938;47.696;8.066;2024-03-29T18:25:36;2.78;;;2.30;;
76176;SDS011;64938;47.696;8.066;2024-03-29T18:28:02;3.03;;;2.67;;
76176;SDS011;64938;47.696;8.066;2024-03-29T18:30:31;2.30;;;1.90;;
76176;SDS011;64938;47.696;8.066;2024-03-29T18:32:58;4.95;;;4.00;;
76176;SDS011;64938;47.696;8.066;2024-03-29T18:35:24;5.23;;;4.13;;
76176;SDS011;64938;47.696;8.066;2024-03-29T18:37:49;7.37;;;5.70;;
76176;SDS011;64938;47.696;8.066;2024-03-29T18:40:15;7.60;;;5.82;;
76176;SDS011;64938;47.696;8.066;2024-03-29T18:42:41;7.20;;;5.60;;
76176;SDS011;64938;47.696;8.066;2024-03-29T18:45:07;7.97;;;6.03;;
76176;SDS011;64938;47.696;8.066;2024-03-29T18:47:35;11.75;;;7.95;;
76176;SDS011;64938;47.696;8.066;2024-03-29T18:50:06;16.35;;;11.45;;
76176;SDS011;64938;47.696;8.066;2024-03-29T18:52:32;11.50;;;8.27;;
76176;SDS011;64938;47.696;8.066;2024-03-29T18:54:58;20.30;;;13.45;;
76176;SDS011;64938;47.696;8.066;2024-03-29T18:57:24;21.70;;;14.23;;
76176;SDS011;64938;47.696;8.066;2024-03-29T18:59:49;15.70;;;10.13;;
76176;SDS011;64938;47.696;8.066;2024-03-29T19:02:15;17.17;;;10.43;;
76176;SDS011;64938;47.696;8.066;2024-03-29T19:04:41;17.67;;;11.53;;
76176;SDS011;64938;47.696;8.066;2024-03-29T19:07:07;14.27;;;9.17;;
76176;SDS011;64938;47.696;8.066;2024-03-29T19:09:33;10.80;;;7.38;;
76176;SDS011;64938;47.696;8.066;2024-03-29T19:12:00;5.70;;;4.43;;
76176;SDS011;64938;47.696;8.066;2024-03-29T19:14:28;3.05;;;2.30;;
76176;SDS011;64938;47.696;8.066;2024-03-29T19:16:54;1.58;;;1.40;;
76176;SDS011;64938;47.696;8.066;2024-03-29T19:19:22;1.40;;;1.30;;
76176;SDS011;64938;47.696;8.066;2024-03-29T19:21:50;2.37;;;1.60;;
76176;SDS011;64938;47.696;8.066;2024-03-29T19:24:17;3.03;;;2.03;;
76176;SDS011;64938;47.696;8.066;2024-03-29T19:26:44;3.40;;;2.17;;
76176;SDS011;64938;47.696;8.066;2024-03-29T19:29:11;2.45;;;1.58;;
76176;SDS011;64938;47.696;8.066;2024-03-29T19:31:38;5.63;;;3.53;;
76176;SDS011;64938;47.696;8.066;2024-03-29T19:34:06;2.53;;;2.00;;
76176;SDS011;64938;47.696;8.066;2024-03-29T19:36:32;2.13;;;1.60;;
76176;SDS011;64938;47.696;8.066;2024-03-29T19:38:58;3.05;;;1.80;;
76176;SDS011;64938;47.696;8.066;2024-03-29T19:41:24;3.70;;;1.93;;
76176;SDS011;64938;47.696;8.066;2024-03-29T19:43:53;2.38;;;1.70;;
76176;SDS011;64938;47.696;8.066;2024-03-29T19:46:20;3.23;;;1.43;;
76176;SDS011;64938;47.696;8.066;2024-03-29T19:48:46;3.05;;;1.30;;
76176;SDS011;64938;47.696;8.066;2024-03-29T19:51:12;1.98;;;1.10;;
76176;SDS011;64938;47.696;8.066;2024-03-29T19:53:40;3.42;;;1.13;;
76176;SDS011;64938;47.696;8.066;2024-03-29T19:56:06;3.40;;;1.20;;
76176;SDS011;64938;47.696;8.066;2024-03-29T19:58:32;3.55;;;1.20;;
76176;SDS011;64938;47.696;8.066;2024-03-29T20:00:58;2.90;;;1.20;;
76176;SDS011;64938;47.696;8.066;2024-03-29T20:03:24;5.72;;;1.58;;
76176;SDS011;64938;47.696;8.066;2024-03-29T20:05:50;5.07;;;1.40;;
76176;SDS011;64938;47.696;8.066;2024-03-29T20:08:18;5.47;;;2.10;;
76176;SDS011;64938;47.696;8.066;2024-03-29T20:10:44;9.15;;;3.72;;
76176;SDS011;64938;47.696;8.066;2024-03-29T20:13:10;7.87;;;2.93;;
76176;SDS011;64938;47.696;8.066;2024-03-29T20:15:41;6.85;;;3.08;;
76176;SDS011;64938;47.696;8.066;2024-03-29T20:18:08;11.40;;;4.40;;
76176;SDS011;64938;47.696;8.066;2024-03-29T20:20:35;8.68;;;3.33;;
76176;SDS011;64938;47.696;8.066;2024-03-29T20:23:15;9.23;;;3.50;;
76176;SDS011;64938;47.696;8.066;2024-03-29T20:25:44;8.00;;;3.00;;
76176;SDS011;64938;47.696;8.066;2024-03-29T20:28:12;6.40;;;2.47;;
76176;SDS011;64938;47.696;8.066;2024-03-29T20:30:39;7.88;;;2.80;;
76176;SDS011;64938;47.696;8.066;2024-03-29T20:33:05;7.47;;;2.47;;
76176;SDS011;64938;47.696;8.066;2024-03-29T20:35:41;6.10;;;2.70;;
76176;SDS011;64938;47.696;8.066;2024-03-29T20:38:08;7.20;;;2.70;;
76176;SDS011;64938;47.696;8.066;2024-03-29T20:40:34;7.53;;;2.50;;
76176;SDS011;64938;47.696;8.066;2024-03-29T20:43:01;4.55;;;2.38;;
76176;SDS011;64938;47.696;8.066;2024-03-29T20:45:28;6.80;;;2.50;;
76176;SDS011;64938;47.696;8.066;2024-03-29T20:47:54;6.57;;;2.30;;
76176;SDS011;64938;47.696;8.066;2024-03-29T20:50:21;10.40;;;2.47;;
76176;SDS011;64938;47.696;8.066;2024-03-29T20:52:51;10.75;;;2.50;;
76176;SDS011;64938;47.696;8.066;2024-03-29T20:55:18;10.93;;;2.78;;
76176;SDS011;64938;47.696;8.066;2024-03-29T20:57:44;10.88;;;2.90;;
76176;SDS011;64938;47.696;8.066;2024-03-29T21:00:10;10.60;;;4.50;;
76176;SDS011;64938;47.696;8.066;2024-03-29T21:02:36;10.27;;;3.20;;
76176;SDS011;64938;47.696;8.066;2024-03-29T21:05:22;12.98;;;4.20;;
76176;SDS011;64938;47.696;8.066;2024-03-29T21:07:56;10.98;;;3.47;;
76176;SDS011;64938;47.696;8.066;2024-03-29T21:10:23;12.00;;;3.30;;
76176;SDS011;64938;47.696;8.066;2024-03-29T21:12:50;12.38;;;3.03;;
76176;SDS011;64938;47.696;8.066;2024-03-29T21:15:18;13.17;;;4.90;;
76176;SDS011;64938;47.696;8.066;2024-03-29T21:17:44;32.50;;;14.48;;
76176;SDS011;64938;47.696;8.066;2024-03-29T21:20:11;10.55;;;3.55;;
76176;SDS011;64938;47.696;8.066;2024-03-29T21:25:04;11.30;;;2.92;;
76176;SDS011;64938;47.696;8.066;2024-03-29T21:27:31;10.85;;;2.78;;
76176;SDS011;64938;47.696;8.066;2024-03-29T21:29:58;14.50;;;3.07;;
76176;SDS011;64938;47.696;8.066;2024-03-29T21:32:24;13.40;;;3.15;;
76176;SDS011;64938;47.696;8.066;2024-03-29T21:34:50;14.10;;;3.08;;
76176;SDS011;64938;47.696;8.066;2024-03-29T21:37:15;12.98;;;2.92;;
76176;SDS011;64938;47.696;8.066;2024-03-29T21:39:42;14.55;;;3.00;;
76176;SDS011;64938;47.696;8.066;2024-03-29T21:42:09;12.50;;;2.70;;
76176;SDS011;64938;47.696;8.066;2024-03-29T21:44:36;16.13;;;2.97;;
76176;SDS011;64938;47.696;8.066;2024-03-29T21:47:03;17.02;;;3.03;;
76176;SDS011;64938;47.696;8.066;2024-03-29T21:49:29;14.32;;;3.00;;
76176;SDS011;64938;47.696;8.066;2024-03-29T21:51:55;14.75;;;3.00;;
76176;SDS011;64938;47.696;8.066;2024-03-29T21:54:21;12.90;;;3.05;;
76176;SDS011;64938;47.696;8.066;2024-03-29T21:56:49;14.68;;;3.05;;
76176;SDS011;64938;47.696;8.066;2024-03-29T21:59:16;13.45;;;3.03;;
76176;SDS011;64938;47.696;8.066;2024-03-29T22:01:42;18.35;;;3.40;;
76176;SDS011;64938;47.696;8.066;2024-03-29T22:04:08;16.25;;;2.95;;
76176;SDS011;64938;47.696;8.066;2024-03-29T22:06:34;17.75;;;3.63;;
76176;SDS011;64938;47.696;8.066;2024-03-29T22:09:01;15.32;;;3.60;;
76176;SDS011;64938;47.696;8.066;2024-03-29T22:11:27;18.95;;;3.20;;
76176;SDS011;64938;47.696;8.066;2024-03-29T22:13:53;19.52;;;3.65;;
76176;SDS011;64938;47.696;8.066;2024-03-29T22:16:20;19.33;;;3.50;;
76176;SDS011;64938;47.696;8.066;2024-03-29T22:18:47;16.65;;;2.90;;
76176;SDS011;64938;47.696;8.066;2024-03-29T22:21:13;16.05;;;3.45;;
76176;SDS011;64938;47.696;8.066;2024-03-29T22:23:39;23.50;;;3.73;;
76176;SDS011;64938;47.696;8.066;2024-03-29T22:26:05;20.13;;;3.53;;
76176;SDS011;64938;47.696;8.066;2024-03-29T22:28:31;21.25;;;3.63;;
76176;SDS011;64938;47.696;8.066;2024-03-29T22:30:57;20.10;;;3.65;;
76176;SDS011;64938;47.696;8.066;2024-03-29T22:33:22;16.23;;;3.65;;
76176;SDS011;64938;47.696;8.066;2024-03-29T22:35:49;13.57;;;3.00;;
76176;SDS011;64938;47.696;8.066;2024-03-29T22:38:14;21.35;;;3.60;;
76176;SDS011;64938;47.696;8.066;2024-03-29T22:40:43;17.50;;;3.22;;
76176;SDS011;64938;47.696;8.066;2024-03-29T22:43:10;18.73;;;3.27;;
76176;SDS011;64938;47.696;8.066;2024-03-29T22:45:36;14.23;;;2.95;;
76176;SDS011;64938;47.696;8.066;2024-03-29T22:48:02;17.80;;;3.25;;
76176;SDS011;64938;47.696;8.066;2024-03-29T22:50:28;16.88;;;3.25;;
76176;SDS011;64938;47.696;8.066;2024-03-29T22:52:57;16.63;;;3.10;;
76176;SDS011;64938;47.696;8.066;2024-03-29T22:55:23;18.55;;;3.60;;
76176;SDS011;64938;47.696;8.066;2024-03-29T22:57:49;16.90;;;2.90;;
76176;SDS011;64938;47.696;8.066;2024-03-29T23:00:14;15.27;;;2.90;;
76176;SDS011;64938;47.696;8.066;2024-03-29T23:02:43;16.63;;;2.95;;
76176;SDS011;64938;47.696;8.066;2024-03-29T23:05:09;17.60;;;3.03;;
76176;SDS011;64938;47.696;8.066;2024-03-29T23:07:35;16.80;;;3.17;;
76176;SDS011;64938;47.696;8.066;2024-03-29T23:10:03;15.20;;;2.90;;
76176;SDS011;64938;47.696;8.066;2024-03-29T23:12:29;14.48;;;2.90;;
76176;SDS011;64938;47.696;8.066;2024-03-29T23:14:55;14.55;;;2.95;;
76176;SDS011;64938;47.696;8.066;2024-03-29T23:17:21;12.35;;;2.70;;
76176;SDS011;64938;47.696;8.066;2024-03-29T23:19:46;13.30;;;2.75;;
76176;SDS011;64938;47.696;8.066;2024-03-29T23:22:12;14.45;;;2.78;;
76176;SDS011;64938;47.696;8.066;2024-03-29T23:24:40;15.83;;;3.00;;
76176;SDS011;64938;47.696;8.066;2024-03-29T23:27:06;11.67;;;2.30;;
76176;SDS011;64938;47.696;8.066;2024-03-29T23:29:31;14.50;;;2.90;;
76176;SDS011;64938;47.696;8.066;2024-03-29T23:31:57;12.02;;;2.42;;
76176;SDS011;64938;47.696;8.066;2024-03-29T23:34:23;11.45;;;2.55;;
76176;SDS011;64938;47.696;8.066;2024-03-29T23:36:49;10.60;;;2.45;;
76176;SDS011;64938;47.696;8.066;2024-03-29T23:39:15;10.50;;;2.50;;
76176;SDS011;64938;47.696;8.066;2024-03-29T23:41:42;12.18;;;2.20;;
76176;SDS011;64938;47.696;8.066;2024-03-29T23:44:08;12.15;;;2.38;;
76176;SDS011;64938;47.696;8.066;2024-03-29T23:46:35;10.88;;;2.25;;
76176;SDS011;64938;47.696;8.066;2024-03-29T23:49:01;10.02;;;2.60;;
76176;SDS011;64938;47.696;8.066;2024-03-29T23:51:28;12.30;;;2.30;;
76176;SDS011;64938;47.696;8.066;2024-03-29T23:53:53;9.90;;;2.58;;
76176;SDS011;64938;47.696;8.066;2024-03-29T23:56:19;11.05;;;2.22;;
76176;SDS011;64938;47.696;8.066;2024-03-29T23:58:45;11.55;;;2.10;;
